Herbert, Canada
Current Conditions -  °F | °C
As of 10:00 PM on Tuesday 21 Oct 2014 (Local Time) from CYYN Reporting Station
Broken Clouds Broken Clouds  
Wind Chill: 50°   Ceiling: 22000
Heat Index: 50°   Visibility: 9mi
Dew Point: 41°   Wind: 13mph
Humidity: 71%   Direction: 280°W
Pressure: 29.66"   Gusts: 20mph
Location:  50.43°N, 107.22°W
Report Text: CYYN 220400Z AUTO 28011G17KT 9SM FEW200 BKN220 10/05 A2966 RMK SLP045 DENSITY ALT 3000FT
Loading
Personal Weather Stations






























Interactive Weather Map
Tropical Storm Tracking
New forecast layout! Learn more

10-Day Weather Forecast

Advertisements
Track Severe Weather on mobile